sensor_id;sensor_type;location;lat;lon;timestamp;temperature;humidity
64143;DHT22;50437;51.970;5.904;2023-02-28T00:01:39;0.90;99.90
64143;DHT22;50437;51.970;5.904;2023-02-28T00:04:07;1.10;99.90
64143;DHT22;50437;51.970;5.904;2023-02-28T00:06:39;1.10;99.90
64143;DHT22;50437;51.970;5.904;2023-02-28T00:09:09;1.20;99.90
64143;DHT22;50437;51.970;5.904;2023-02-28T00:11:35;1.20;99.90
64143;DHT22;50437;51.970;5.904;2023-02-28T00:14:03;1.20;99.90
64143;DHT22;50437;51.970;5.904;2023-02-28T00:16:32;1.30;99.90
64143;DHT22;50437;51.970;5.904;2023-02-28T00:18:58;1.30;99.90
64143;DHT22;50437;51.970;5.904;2023-02-28T00:21:26;1.30;99.90
64143;DHT22;50437;51.970;5.904;2023-02-28T00:23:52;1.30;99.90
64143;DHT22;50437;51.970;5.904;2023-02-28T00:26:19;1.40;99.90
64143;DHT22;50437;51.970;5.904;2023-02-28T00:28:46;1.40;99.90
64143;DHT22;50437;51.970;5.904;2023-02-28T00:31:16;1.60;99.90
64143;DHT22;50437;51.970;5.904;2023-02-28T00:33:42;1.60;99.90
64143;DHT22;50437;51.970;5.904;2023-02-28T00:36:21;1.60;99.90
64143;DHT22;50437;51.970;5.904;2023-02-28T00:38:49;1.70;99.90
64143;DHT22;50437;51.970;5.904;2023-02-28T00:41:17;1.80;99.90
64143;DHT22;50437;51.970;5.904;2023-02-28T00:43:44;1.80;99.90
64143;DHT22;50437;51.970;5.904;2023-02-28T00:46:10;1.80;99.90
64143;DHT22;50437;51.970;5.904;2023-02-28T00:48:37;1.90;99.90
64143;DHT22;50437;51.970;5.904;2023-02-28T00:51:03;1.90;99.90
64143;DHT22;50437;51.970;5.904;2023-02-28T00:53:33;1.80;99.90
64143;DHT22;50437;51.970;5.904;2023-02-28T00:55:59;1.90;99.90
64143;DHT22;50437;51.970;5.904;2023-02-28T00:58:26;2.00;99.90
64143;DHT22;50437;51.970;5.904;2023-02-28T01:00:53;2.00;99.90
64143;DHT22;50437;51.970;5.904;2023-02-28T01:03:20;1.90;99.90
64143;DHT22;50437;51.970;5.904;2023-02-28T01:05:50;2.00;99.90
64143;DHT22;50437;51.970;5.904;2023-02-28T01:08:19;2.00;99.90
64143;DHT22;50437;51.970;5.904;2023-02-28T01:10:45;2.00;99.90
64143;DHT22;50437;51.970;5.904;2023-02-28T01:13:12;2.10;99.90
64143;DHT22;50437;51.970;5.904;2023-02-28T01:15:42;2.10;99.90
64143;DHT22;50437;51.970;5.904;2023-02-28T01:18:11;2.10;99.90
64143;DHT22;50437;51.970;5.904;2023-02-28T01:20:42;2.10;99.90
64143;DHT22;50437;51.970;5.904;2023-02-28T01:23:33;2.10;99.90
64143;DHT22;50437;51.970;5.904;2023-02-28T01:26:22;2.10;99.90
64143;DHT22;50437;51.970;5.904;2023-02-28T01:28:51;2.10;99.90
64143;DHT22;50437;51.970;5.904;2023-02-28T01:31:23;2.10;99.90
64143;DHT22;50437;51.970;5.904;2023-02-28T01:33:52;2.20;99.90
64143;DHT22;50437;51.970;5.904;2023-02-28T01:36:23;2.20;99.90
64143;DHT22;50437;51.970;5.904;2023-02-28T01:38:51;2.20;99.90
64143;DHT22;50437;51.970;5.904;2023-02-28T01:41:27;2.20;99.90
64143;DHT22;50437;51.970;5.904;2023-02-28T01:43:58;2.20;99.90
64143;DHT22;50437;51.970;5.904;2023-02-28T01:46:27;2.20;99.90
64143;DHT22;50437;51.970;5.904;2023-02-28T01:49:15;2.20;99.90
64143;DHT22;50437;51.970;5.904;2023-02-28T01:51:45;2.30;99.90
64143;DHT22;50437;51.970;5.904;2023-02-28T01:54:28;2.20;99.90
64143;DHT22;50437;51.970;5.904;2023-02-28T01:57:06;2.20;99.90
64143;DHT22;50437;51.970;5.904;2023-02-28T01:59:39;2.20;99.90
64143;DHT22;50437;51.970;5.904;2023-02-28T02:02:12;2.20;99.90
64143;DHT22;50437;51.970;5.904;2023-02-28T02:04:55;2.20;99.90
64143;DHT22;50437;51.970;5.904;2023-02-28T02:07:26;2.20;99.90
64143;DHT22;50437;51.970;5.904;2023-02-28T02:15:22;2.10;99.90
64143;DHT22;50437;51.970;5.904;2023-02-28T02:17:53;2.10;99.90
64143;DHT22;50437;51.970;5.904;2023-02-28T02:20:30;2.10;99.90
64143;DHT22;50437;51.970;5.904;2023-02-28T02:32:18;2.10;99.90
64143;DHT22;50437;51.970;5.904;2023-02-28T02:35:27;2.10;99.90
64143;DHT22;50437;51.970;5.904;2023-02-28T02:39:06;2.20;99.90
64143;DHT22;50437;51.970;5.904;2023-02-28T02:47:19;2.10;99.90
64143;DHT22;50437;51.970;5.904;2023-02-28T02:49:53;2.10;99.90
64143;DHT22;50437;51.970;5.904;2023-02-28T02:52:45;2.10;99.90
64143;DHT22;50437;51.970;5.904;2023-02-28T02:55:17;2.10;99.90
64143;DHT22;50437;51.970;5.904;2023-02-28T02:57:54;2.10;99.90
64143;DHT22;50437;51.970;5.904;2023-02-28T03:00:26;2.10;99.90
64143;DHT22;50437;51.970;5.904;2023-02-28T03:02:56;2.20;99.90
64143;DHT22;50437;51.970;5.904;2023-02-28T03:05:34;2.20;99.90
64143;DHT22;50437;51.970;5.904;2023-02-28T03:08:05;2.10;99.90
64143;DHT22;50437;51.970;5.904;2023-02-28T03:10:45;2.20;99.90
64143;DHT22;50437;51.970;5.904;2023-02-28T03:19:07;2.10;99.90
64143;DHT22;50437;51.970;5.904;2023-02-28T03:22:00;2.10;99.90
64143;DHT22;50437;51.970;5.904;2023-02-28T03:24:49;2.10;99.90
64143;DHT22;50437;51.970;5.904;2023-02-28T03:27:27;2.10;99.90
64143;DHT22;50437;51.970;5.904;2023-02-28T03:33:27;2.20;99.90
64143;DHT22;50437;51.970;5.904;2023-02-28T03:36:02;2.10;99.90
64143;DHT22;50437;51.970;5.904;2023-02-28T03:41:21;2.10;99.90
64143;DHT22;50437;51.970;5.904;2023-02-28T03:43:51;2.00;99.90
64143;DHT22;50437;51.970;5.904;2023-02-28T03:46:23;2.10;99.90
64143;DHT22;50437;51.970;5.904;2023-02-28T03:49:20;2.10;99.90
64143;DHT22;50437;51.970;5.904;2023-02-28T03:51:50;2.10;99.90
64143;DHT22;50437;51.970;5.904;2023-02-28T03:54:32;2.10;99.90
64143;DHT22;50437;51.970;5.904;2023-02-28T03:57:08;2.20;99.90
64143;DHT22;50437;51.970;5.904;2023-02-28T03:59:42;2.10;99.90
64143;DHT22;50437;51.970;5.904;2023-02-28T04:02:10;2.10;99.90
64143;DHT22;50437;51.970;5.904;2023-02-28T04:04:38;2.10;99.90
64143;DHT22;50437;51.970;5.904;2023-02-28T04:07:08;2.20;99.90
64143;DHT22;50437;51.970;5.904;2023-02-28T04:09:35;2.10;99.90
64143;DHT22;50437;51.970;5.904;2023-02-28T04:12:01;2.10;99.90
64143;DHT22;50437;51.970;5.904;2023-02-28T04:14:29;2.20;99.90
64143;DHT22;50437;51.970;5.904;2023-02-28T04:16:56;2.20;99.90
64143;DHT22;50437;51.970;5.904;2023-02-28T04:19:22;2.10;99.90
64143;DHT22;50437;51.970;5.904;2023-02-28T04:21:51;2.20;99.90
64143;DHT22;50437;51.970;5.904;2023-02-28T04:24:26;2.20;99.90
64143;DHT22;50437;51.970;5.904;2023-02-28T04:26:56;2.20;99.90
64143;DHT22;50437;51.970;5.904;2023-02-28T04:29:28;2.20;99.90
64143;DHT22;50437;51.970;5.904;2023-02-28T04:31:59;2.20;99.90
64143;DHT22;50437;51.970;5.904;2023-02-28T04:34:30;2.20;99.90
64143;DHT22;50437;51.970;5.904;2023-02-28T04:36:57;2.20;99.90
64143;DHT22;50437;51.970;5.904;2023-02-28T04:39:25;2.20;99.90
64143;DHT22;50437;51.970;5.904;2023-02-28T04:41:51;2.20;99.90
64143;DHT22;50437;51.970;5.904;2023-02-28T04:44:20;2.20;99.90
64143;DHT22;50437;51.970;5.904;2023-02-28T04:46:53;2.10;99.90
64143;DHT22;50437;51.970;5.904;2023-02-28T04:49:19;2.20;99.90
64143;DHT22;50437;51.970;5.904;2023-02-28T04:51:51;2.20;99.90
64143;DHT22;50437;51.970;5.904;2023-02-28T04:54:21;2.10;99.90
64143;DHT22;50437;51.970;5.904;2023-02-28T04:56:47;2.20;99.90
64143;DHT22;50437;51.970;5.904;2023-02-28T04:59:15;2.10;99.90
64143;DHT22;50437;51.970;5.904;2023-02-28T05:01:49;2.10;99.90
64143;DHT22;50437;51.970;5.904;2023-02-28T05:04:17;2.10;99.90
64143;DHT22;50437;51.970;5.904;2023-02-28T05:06:43;2.10;99.90
64143;DHT22;50437;51.970;5.904;2023-02-28T05:09:10;2.00;99.90
64143;DHT22;50437;51.970;5.904;2023-02-28T05:11:41;2.00;99.90
64143;DHT22;50437;51.970;5.904;2023-02-28T05:14:12;2.10;99.90
64143;DHT22;50437;51.970;5.904;2023-02-28T05:16:39;2.00;99.90
64143;DHT22;50437;51.970;5.904;2023-02-28T05:19:05;2.10;99.90
64143;DHT22;50437;51.970;5.904;2023-02-28T05:21:34;2.00;99.90
64143;DHT22;50437;51.970;5.904;2023-02-28T05:24:06;2.00;99.90
64143;DHT22;50437;51.970;5.904;2023-02-28T05:26:37;2.00;99.90
64143;DHT22;50437;51.970;5.904;2023-02-28T05:29:09;2.00;99.90
64143;DHT22;50437;51.970;5.904;2023-02-28T05:31:36;1.90;99.90
64143;DHT22;50437;51.970;5.904;2023-02-28T05:34:03;2.00;99.90
64143;DHT22;50437;51.970;5.904;2023-02-28T05:36:36;2.00;99.90
64143;DHT22;50437;51.970;5.904;2023-02-28T05:39:04;2.00;99.90
64143;DHT22;50437;51.970;5.904;2023-02-28T05:41:33;2.00;99.90
64143;DHT22;50437;51.970;5.904;2023-02-28T05:44:02;2.00;99.90
64143;DHT22;50437;51.970;5.904;2023-02-28T05:46:28;2.00;99.90
64143;DHT22;50437;51.970;5.904;2023-02-28T05:48:55;2.00;99.90
64143;DHT22;50437;51.970;5.904;2023-02-28T05:51:23;2.00;99.90
64143;DHT22;50437;51.970;5.904;2023-02-28T05:53:53;1.90;99.90
64143;DHT22;50437;51.970;5.904;2023-02-28T05:56:27;2.00;99.90
64143;DHT22;50437;51.970;5.904;2023-02-28T05:58:53;2.00;99.90
64143;DHT22;50437;51.970;5.904;2023-02-28T06:01:40;2.00;99.90
64143;DHT22;50437;51.970;5.904;2023-02-28T06:04:09;1.90;99.90
64143;DHT22;50437;51.970;5.904;2023-02-28T06:06:36;2.00;99.90
64143;DHT22;50437;51.970;5.904;2023-02-28T06:09:09;2.00;99.90
64143;DHT22;50437;51.970;5.904;2023-02-28T06:11:35;2.00;99.90
64143;DHT22;50437;51.970;5.904;2023-02-28T06:14:02;2.00;99.90
64143;DHT22;50437;51.970;5.904;2023-02-28T06:16:31;2.10;99.90
64143;DHT22;50437;51.970;5.904;2023-02-28T06:19:14;2.00;99.90
64143;DHT22;50437;51.970;5.904;2023-02-28T06:21:44;2.00;99.90
64143;DHT22;50437;51.970;5.904;2023-02-28T06:24:11;2.00;99.90
64143;DHT22;50437;51.970;5.904;2023-02-28T06:26:38;2.00;99.90
64143;DHT22;50437;51.970;5.904;2023-02-28T06:29:06;2.10;99.90
64143;DHT22;50437;51.970;5.904;2023-02-28T06:31:42;2.10;99.90
64143;DHT22;50437;51.970;5.904;2023-02-28T06:34:10;2.10;99.90
64143;DHT22;50437;51.970;5.904;2023-02-28T06:36:39;2.00;99.90
64143;DHT22;50437;51.970;5.904;2023-02-28T06:39:09;2.00;99.90
64143;DHT22;50437;51.970;5.904;2023-02-28T06:41:36;2.00;99.90
64143;DHT22;50437;51.970;5.904;2023-02-28T06:44:04;2.10;99.90
64143;DHT22;50437;51.970;5.904;2023-02-28T06:46:33;2.10;99.90
64143;DHT22;50437;51.970;5.904;2023-02-28T06:49:00;2.10;99.90
64143;DHT22;50437;51.970;5.904;2023-02-28T06:51:27;2.10;99.90
64143;DHT22;50437;51.970;5.904;2023-02-28T06:53:53;2.20;99.90
64143;DHT22;50437;51.970;5.904;2023-02-28T06:56:20;2.20;99.90
64143;DHT22;50437;51.970;5.904;2023-02-28T06:58:48;2.20;99.90
64143;DHT22;50437;51.970;5.904;2023-02-28T07:01:16;2.20;99.90
64143;DHT22;50437;51.970;5.904;2023-02-28T07:03:45;2.30;99.90
64143;DHT22;50437;51.970;5.904;2023-02-28T07:06:12;2.20;99.90
64143;DHT22;50437;51.970;5.904;2023-02-28T07:08:38;2.30;99.90
64143;DHT22;50437;51.970;5.904;2023-02-28T07:11:07;2.40;99.90
64143;DHT22;50437;51.970;5.904;2023-02-28T07:13:33;2.40;99.90
64143;DHT22;50437;51.970;5.904;2023-02-28T07:16:05;2.50;99.90
64143;DHT22;50437;51.970;5.904;2023-02-28T07:18:38;2.60;99.90
64143;DHT22;50437;51.970;5.904;2023-02-28T07:21:07;2.60;99.90
64143;DHT22;50437;51.970;5.904;2023-02-28T07:23:36;2.50;99.90
64143;DHT22;50437;51.970;5.904;2023-02-28T07:26:05;2.50;99.90
64143;DHT22;50437;51.970;5.904;2023-02-28T07:28:33;2.40;99.90
64143;DHT22;50437;51.970;5.904;2023-02-28T07:31:05;2.40;99.90
64143;DHT22;50437;51.970;5.904;2023-02-28T07:33:32;2.20;99.90
64143;DHT22;50437;51.970;5.904;2023-02-28T07:36:07;2.30;99.90
64143;DHT22;50437;51.970;5.904;2023-02-28T07:38:35;2.30;99.90
64143;DHT22;50437;51.970;5.904;2023-02-28T07:41:03;2.40;99.90
64143;DHT22;50437;51.970;5.904;2023-02-28T07:43:32;2.50;99.90
64143;DHT22;50437;51.970;5.904;2023-02-28T07:46:07;2.50;99.90
64143;DHT22;50437;51.970;5.904;2023-02-28T07:48:34;2.50;99.90
64143;DHT22;50437;51.970;5.904;2023-02-28T07:51:03;2.60;99.90
64143;DHT22;50437;51.970;5.904;2023-02-28T07:53:37;2.60;99.90
64143;DHT22;50437;51.970;5.904;2023-02-28T07:56:07;2.60;99.90
64143;DHT22;50437;51.970;5.904;2023-02-28T07:58:36;2.60;99.90
64143;DHT22;50437;51.970;5.904;2023-02-28T08:01:07;2.50;99.90
64143;DHT22;50437;51.970;5.904;2023-02-28T08:03:34;2.30;99.90
64143;DHT22;50437;51.970;5.904;2023-02-28T08:06:04;2.30;99.90
64143;DHT22;50437;51.970;5.904;2023-02-28T08:08:32;2.10;99.90
64143;DHT22;50437;51.970;5.904;2023-02-28T08:11:02;2.10;99.90
64143;DHT22;50437;51.970;5.904;2023-02-28T08:13:29;2.00;99.90
64143;DHT22;50437;51.970;5.904;2023-02-28T08:15:56;2.10;99.90
64143;DHT22;50437;51.970;5.904;2023-02-28T08:18:23;2.10;99.90
64143;DHT22;50437;51.970;5.904;2023-02-28T08:20:51;2.10;99.90
64143;DHT22;50437;51.970;5.904;2023-02-28T08:23:19;2.20;99.90
64143;DHT22;50437;51.970;5.904;2023-02-28T08:25:52;2.10;99.90
64143;DHT22;50437;51.970;5.904;2023-02-28T08:28:19;2.20;99.90
64143;DHT22;50437;51.970;5.904;2023-02-28T08:30:45;2.30;99.90
64143;DHT22;50437;51.970;5.904;2023-02-28T08:33:11;2.30;99.90
64143;DHT22;50437;51.970;5.904;2023-02-28T08:35:39;2.20;99.90
64143;DHT22;50437;51.970;5.904;2023-02-28T08:38:05;2.20;99.90
64143;DHT22;50437;51.970;5.904;2023-02-28T08:40:37;2.20;99.90
64143;DHT22;50437;51.970;5.904;2023-02-28T08:43:03;2.30;99.90
64143;DHT22;50437;51.970;5.904;2023-02-28T08:45:30;2.20;99.90
64143;DHT22;50437;51.970;5.904;2023-02-28T08:47:56;2.30;99.90
64143;DHT22;50437;51.970;5.904;2023-02-28T08:50:23;2.40;99.90
64143;DHT22;50437;51.970;5.904;2023-02-28T08:52:49;2.30;95.40
64143;DHT22;50437;51.970;5.904;2023-02-28T08:55:15;2.40;95.60
64143;DHT22;50437;51.970;5.904;2023-02-28T08:57:44;2.40;94.50
64143;DHT22;50437;51.970;5.904;2023-02-28T09:00:13;2.30;94.50
64143;DHT22;50437;51.970;5.904;2023-02-28T09:02:40;2.30;93.40
64143;DHT22;50437;51.970;5.904;2023-02-28T09:05:15;2.30;94.80
64143;DHT22;50437;51.970;5.904;2023-02-28T09:07:49;2.40;92.90
64143;DHT22;50437;51.970;5.904;2023-02-28T09:10:19;2.50;92.10
64143;DHT22;50437;51.970;5.904;2023-02-28T09:12:45;2.50;87.00
64143;DHT22;50437;51.970;5.904;2023-02-28T09:15:12;2.50;87.80
64143;DHT22;50437;51.970;5.904;2023-02-28T09:17:39;2.50;85.60
64143;DHT22;50437;51.970;5.904;2023-02-28T09:20:05;2.60;86.10
64143;DHT22;50437;51.970;5.904;2023-02-28T09:22:32;2.70;82.60
64143;DHT22;50437;51.970;5.904;2023-02-28T09:24:58;2.80;79.90
64143;DHT22;50437;51.970;5.904;2023-02-28T09:27:24;3.20;77.50
64143;DHT22;50437;51.970;5.904;2023-02-28T09:29:50;4.30;72.50
64143;DHT22;50437;51.970;5.904;2023-02-28T09:32:16;5.60;62.60
64143;DHT22;50437;51.970;5.904;2023-02-28T09:34:43;6.20;54.00
64143;DHT22;50437;51.970;5.904;2023-02-28T09:37:09;6.90;52.10
64143;DHT22;50437;51.970;5.904;2023-02-28T09:39:35;7.10;49.70
64143;DHT22;50437;51.970;5.904;2023-02-28T09:42:02;7.40;46.80
64143;DHT22;50437;51.970;5.904;2023-02-28T09:44:36;8.20;45.90
64143;DHT22;50437;51.970;5.904;2023-02-28T09:47:32;8.60;44.40
64143;DHT22;50437;51.970;5.904;2023-02-28T09:50:17;8.80;42.80
64143;DHT22;50437;51.970;5.904;2023-02-28T09:52:45;8.80;41.70
64143;DHT22;50437;51.970;5.904;2023-02-28T09:58:48;9.90;40.80
64143;DHT22;50437;51.970;5.904;2023-02-28T10:04:21;8.90;38.60
64143;DHT22;50437;51.970;5.904;2023-02-28T10:06:52;7.70;40.40
64143;DHT22;50437;51.970;5.904;2023-02-28T10:09:23;6.90;40.40
64143;DHT22;50437;51.970;5.904;2023-02-28T10:11:52;6.40;43.20
64143;DHT22;50437;51.970;5.904;2023-02-28T10:14:24;6.30;43.30
64143;DHT22;50437;51.970;5.904;2023-02-28T10:22:19;9.20;40.10
64143;DHT22;50437;51.970;5.904;2023-02-28T10:24:48;9.60;38.70
64143;DHT22;50437;51.970;5.904;2023-02-28T10:27:19;9.90;37.40
64143;DHT22;50437;51.970;5.904;2023-02-28T10:29:49;9.80;37.20
64143;DHT22;50437;51.970;5.904;2023-02-28T10:32:23;9.50;36.10
64143;DHT22;50437;51.970;5.904;2023-02-28T10:34:59;10.00;36.90
64143;DHT22;50437;51.970;5.904;2023-02-28T10:37:26;10.00;36.30
64143;DHT22;50437;51.970;5.904;2023-02-28T10:39:52;9.90;37.70
64143;DHT22;50437;51.970;5.904;2023-02-28T10:42:21;10.30;37.10
64143;DHT22;50437;51.970;5.904;2023-02-28T10:44:47;10.40;36.30
64143;DHT22;50437;51.970;5.904;2023-02-28T10:47:15;10.20;36.10
64143;DHT22;50437;51.970;5.904;2023-02-28T10:49:48;10.20;37.30
64143;DHT22;50437;51.970;5.904;2023-02-28T10:52:36;10.70;35.60
64143;DHT22;50437;51.970;5.904;2023-02-28T10:55:21;10.00;35.40
64143;DHT22;50437;51.970;5.904;2023-02-28T10:57:48;11.10;35.80
64143;DHT22;50437;51.970;5.904;2023-02-28T11:00:16;11.70;35.80
64143;DHT22;50437;51.970;5.904;2023-02-28T11:02:43;11.80;34.80
64143;DHT22;50437;51.970;5.904;2023-02-28T11:05:52;11.50;35.10
64143;DHT22;50437;51.970;5.904;2023-02-28T11:08:27;11.00;35.20
64143;DHT22;50437;51.970;5.904;2023-02-28T11:10:57;11.10;36.40
64143;DHT22;50437;51.970;5.904;2023-02-28T11:13:33;10.80;37.10
64143;DHT22;50437;51.970;5.904;2023-02-28T11:16:04;11.00;35.20
64143;DHT22;50437;51.970;5.904;2023-02-28T11:18:52;10.40;37.20
64143;DHT22;50437;51.970;5.904;2023-02-28T11:21:26;10.20;36.30
64143;DHT22;50437;51.970;5.904;2023-02-28T11:24:06;11.20;36.90
64143;DHT22;50437;51.970;5.904;2023-02-28T11:29:32;12.00;35.50
64143;DHT22;50437;51.970;5.904;2023-02-28T11:32:16;12.70;33.10
64143;DHT22;50437;51.970;5.904;2023-02-28T11:34:45;12.00;33.80
64143;DHT22;50437;51.970;5.904;2023-02-28T11:37:17;11.50;35.30
64143;DHT22;50437;51.970;5.904;2023-02-28T11:39:45;11.40;32.80
64143;DHT22;50437;51.970;5.904;2023-02-28T11:50:56;11.40;34.80
64143;DHT22;50437;51.970;5.904;2023-02-28T11:56:31;11.50;34.80
64143;DHT22;50437;51.970;5.904;2023-02-28T12:02:06;11.00;34.90
64143;DHT22;50437;51.970;5.904;2023-02-28T12:04:52;10.80;35.00
64143;DHT22;50437;51.970;5.904;2023-02-28T12:07:26;10.80;35.70
64143;DHT22;50437;51.970;5.904;2023-02-28T12:10:21;10.70;36.40
64143;DHT22;50437;51.970;5.904;2023-02-28T12:24:38;9.30;36.90
64143;DHT22;50437;51.970;5.904;2023-02-28T12:27:09;9.50;36.10
64143;DHT22;50437;51.970;5.904;2023-02-28T12:29:48;9.50;37.90
64143;DHT22;50437;51.970;5.904;2023-02-28T12:32:23;9.70;37.40
64143;DHT22;50437;51.970;5.904;2023-02-28T12:34:57;9.70;38.30
64143;DHT22;50437;51.970;5.904;2023-02-28T12:37:57;9.70;37.90
64143;DHT22;50437;51.970;5.904;2023-02-28T12:40:42;8.90;38.00
64143;DHT22;50437;51.970;5.904;2023-02-28T12:43:13;8.90;38.10
64143;DHT22;50437;51.970;5.904;2023-02-28T12:45:46;8.30;37.90
64143;DHT22;50437;51.970;5.904;2023-02-28T12:48:26;8.50;37.30
64143;DHT22;50437;51.970;5.904;2023-02-28T12:50:55;8.60;38.90
64143;DHT22;50437;51.970;5.904;2023-02-28T12:53:26;8.80;39.60
64143;DHT22;50437;51.970;5.904;2023-02-28T12:58:45;9.00;39.40
64143;DHT22;50437;51.970;5.904;2023-02-28T13:09:53;8.80;39.30
64143;DHT22;50437;51.970;5.904;2023-02-28T13:12:20;8.40;39.00
64143;DHT22;50437;51.970;5.904;2023-02-28T13:14:49;8.50;39.60
64143;DHT22;50437;51.970;5.904;2023-02-28T13:17:21;8.40;39.80
64143;DHT22;50437;51.970;5.904;2023-02-28T13:24:53;8.30;40.50
64143;DHT22;50437;51.970;5.904;2023-02-28T13:27:23;8.20;40.70
64143;DHT22;50437;51.970;5.904;2023-02-28T13:29:53;8.20;38.90
64143;DHT22;50437;51.970;5.904;2023-02-28T13:32:30;8.10;39.50
64143;DHT22;50437;51.970;5.904;2023-02-28T13:39:51;8.00;39.60
64143;DHT22;50437;51.970;5.904;2023-02-28T13:47:44;7.70;39.70
64143;DHT22;50437;51.970;5.904;2023-02-28T13:50:37;7.70;39.50
64143;DHT22;50437;51.970;5.904;2023-02-28T14:06:40;7.40;40.40
64143;DHT22;50437;51.970;5.904;2023-02-28T14:09:21;7.50;40.00
64143;DHT22;50437;51.970;5.904;2023-02-28T14:11:49;7.60;41.70
64143;DHT22;50437;51.970;5.904;2023-02-28T14:17:03;7.80;40.30
64143;DHT22;50437;51.970;5.904;2023-02-28T14:19:34;7.70;39.50
64143;DHT22;50437;51.970;5.904;2023-02-28T14:25:26;7.50;41.00
64143;DHT22;50437;51.970;5.904;2023-02-28T14:28:35;7.50;40.60
64143;DHT22;50437;51.970;5.904;2023-02-28T14:31:10;7.40;40.80
64143;DHT22;50437;51.970;5.904;2023-02-28T14:36:42;7.40;41.10
64143;DHT22;50437;51.970;5.904;2023-02-28T14:39:12;7.30;41.70
64143;DHT22;50437;51.970;5.904;2023-02-28T14:41:41;7.40;41.60
64143;DHT22;50437;51.970;5.904;2023-02-28T14:46:41;7.50;40.90
64143;DHT22;50437;51.970;5.904;2023-02-28T14:49:17;7.50;40.80
64143;DHT22;50437;51.970;5.904;2023-02-28T14:51:44;7.40;40.40
64143;DHT22;50437;51.970;5.904;2023-02-28T14:54:14;7.50;42.00
64143;DHT22;50437;51.970;5.904;2023-02-28T14:56:41;7.50;41.70
64143;DHT22;50437;51.970;5.904;2023-02-28T14:59:28;7.50;42.60
64143;DHT22;50437;51.970;5.904;2023-02-28T15:02:21;7.50;41.60
64143;DHT22;50437;51.970;5.904;2023-02-28T15:04:57;7.50;43.00
64143;DHT22;50437;51.970;5.904;2023-02-28T15:07:24;7.50;41.40
64143;DHT22;50437;51.970;5.904;2023-02-28T15:10:26;7.50;43.30
64143;DHT22;50437;51.970;5.904;2023-02-28T15:13:13;7.50;41.00
64143;DHT22;50437;51.970;5.904;2023-02-28T15:15:57;7.50;42.20
64143;DHT22;50437;51.970;5.904;2023-02-28T15:21:20;7.50;41.90
64143;DHT22;50437;51.970;5.904;2023-02-28T15:26:34;7.50;42.60
64143;DHT22;50437;51.970;5.904;2023-02-28T15:29:10;7.50;41.60
64143;DHT22;50437;51.970;5.904;2023-02-28T15:32:00;7.50;40.60
64143;DHT22;50437;51.970;5.904;2023-02-28T15:34:34;7.30;41.20
64143;DHT22;50437;51.970;5.904;2023-02-28T15:37:01;7.40;42.40
64143;DHT22;50437;51.970;5.904;2023-02-28T15:39:28;7.30;42.70
64143;DHT22;50437;51.970;5.904;2023-02-28T15:42:21;7.30;43.10
64143;DHT22;50437;51.970;5.904;2023-02-28T15:44:48;7.30;41.50
64143;DHT22;50437;51.970;5.904;2023-02-28T15:47:19;7.30;41.80
64143;DHT22;50437;51.970;5.904;2023-02-28T15:49:51;7.30;42.10
64143;DHT22;50437;51.970;5.904;2023-02-28T15:52:45;7.10;41.30
64143;DHT22;50437;51.970;5.904;2023-02-28T15:55:20;7.20;43.50
64143;DHT22;50437;51.970;5.904;2023-02-28T15:57:50;7.00;41.60
64143;DHT22;50437;51.970;5.904;2023-02-28T16:00:21;6.90;42.60
64143;DHT22;50437;51.970;5.904;2023-02-28T16:02:48;6.80;42.30
64143;DHT22;50437;51.970;5.904;2023-02-28T16:05:23;6.90;42.70
64143;DHT22;50437;51.970;5.904;2023-02-28T16:08:06;6.80;43.90
64143;DHT22;50437;51.970;5.904;2023-02-28T16:10:37;6.70;44.20
64143;DHT22;50437;51.970;5.904;2023-02-28T16:13:06;6.60;43.90
64143;DHT22;50437;51.970;5.904;2023-02-28T16:15:38;6.70;44.20
64143;DHT22;50437;51.970;5.904;2023-02-28T16:18:10;6.80;43.60
64143;DHT22;50437;51.970;5.904;2023-02-28T16:20:37;6.70;42.80
64143;DHT22;50437;51.970;5.904;2023-02-28T16:23:09;6.60;44.50
64143;DHT22;50437;51.970;5.904;2023-02-28T16:25:40;6.40;45.20
64143;DHT22;50437;51.970;5.904;2023-02-28T16:28:16;6.20;44.70
64143;DHT22;50437;51.970;5.904;2023-02-28T16:30:43;6.10;45.60
64143;DHT22;50437;51.970;5.904;2023-02-28T16:33:09;6.00;47.10
64143;DHT22;50437;51.970;5.904;2023-02-28T16:35:36;5.90;47.50
64143;DHT22;50437;51.970;5.904;2023-02-28T16:38:04;5.80;46.10
64143;DHT22;50437;51.970;5.904;2023-02-28T16:40:34;5.60;46.80
64143;DHT22;50437;51.970;5.904;2023-02-28T16:43:05;5.60;46.50
64143;DHT22;50437;51.970;5.904;2023-02-28T16:45:33;5.50;46.70
64143;DHT22;50437;51.970;5.904;2023-02-28T16:47:59;5.40;47.30
64143;DHT22;50437;51.970;5.904;2023-02-28T16:50:30;5.40;48.20
64143;DHT22;50437;51.970;5.904;2023-02-28T16:52:58;5.40;48.60
64143;DHT22;50437;51.970;5.904;2023-02-28T16:55:25;5.20;49.90
64143;DHT22;50437;51.970;5.904;2023-02-28T16:57:55;5.30;47.90
64143;DHT22;50437;51.970;5.904;2023-02-28T17:00:22;5.20;49.60
64143;DHT22;50437;51.970;5.904;2023-02-28T17:02:49;5.20;48.70
64143;DHT22;50437;51.970;5.904;2023-02-28T17:05:15;5.20;49.90
64143;DHT22;50437;51.970;5.904;2023-02-28T17:07:42;5.10;50.20
64143;DHT22;50437;51.970;5.904;2023-02-28T17:10:21;5.10;50.30
64143;DHT22;50437;51.970;5.904;2023-02-28T17:12:47;5.10;51.40
64143;DHT22;50437;51.970;5.904;2023-02-28T17:15:16;4.90;51.40
64143;DHT22;50437;51.970;5.904;2023-02-28T17:17:43;4.90;51.00
64143;DHT22;50437;51.970;5.904;2023-02-28T17:20:13;4.90;51.40
64143;DHT22;50437;51.970;5.904;2023-02-28T17:22:39;4.80;51.30
64143;DHT22;50437;51.970;5.904;2023-02-28T17:25:07;4.70;51.40
64143;DHT22;50437;51.970;5.904;2023-02-28T17:27:36;4.60;52.10
64143;DHT22;50437;51.970;5.904;2023-02-28T17:30:23;4.60;52.40
64143;DHT22;50437;51.970;5.904;2023-02-28T17:32:50;4.50;53.10
64143;DHT22;50437;51.970;5.904;2023-02-28T17:35:17;4.50;52.80
64143;DHT22;50437;51.970;5.904;2023-02-28T17:37:54;4.50;53.00
64143;DHT22;50437;51.970;5.904;2023-02-28T17:40:22;4.40;53.40
64143;DHT22;50437;51.970;5.904;2023-02-28T17:42:49;4.40;54.60
64143;DHT22;50437;51.970;5.904;2023-02-28T17:45:18;4.30;55.40
64143;DHT22;50437;51.970;5.904;2023-02-28T17:47:47;4.30;54.90
64143;DHT22;50437;51.970;5.904;2023-02-28T17:50:20;4.30;56.10
64143;DHT22;50437;51.970;5.904;2023-02-28T17:52:46;4.10;56.60
64143;DHT22;50437;51.970;5.904;2023-02-28T17:55:13;4.00;56.40
64143;DHT22;50437;51.970;5.904;2023-02-28T17:57:41;4.00;56.70
64143;DHT22;50437;51.970;5.904;2023-02-28T18:00:10;3.90;56.40
64143;DHT22;50437;51.970;5.904;2023-02-28T18:02:38;3.80;56.80
64143;DHT22;50437;51.970;5.904;2023-02-28T18:05:08;3.90;57.20
64143;DHT22;50437;51.970;5.904;2023-02-28T18:07:36;3.80;57.50
64143;DHT22;50437;51.970;5.904;2023-02-28T18:10:02;3.80;55.50
64143;DHT22;50437;51.970;5.904;2023-02-28T18:12:40;3.80;55.40
64143;DHT22;50437;51.970;5.904;2023-02-28T18:15:10;3.80;56.00
64143;DHT22;50437;51.970;5.904;2023-02-28T18:17:48;3.70;56.30
64143;DHT22;50437;51.970;5.904;2023-02-28T18:20:18;3.60;56.90
64143;DHT22;50437;51.970;5.904;2023-02-28T18:22:44;3.60;58.50
64143;DHT22;50437;51.970;5.904;2023-02-28T18:25:11;3.50;59.40